sensor_id;sensor_type;location;lat;lon;timestamp;P1;durP1;ratioP1;P2;durP2;ratioP2
18322;SDS011;9287;49.456;11.064;2022-10-13T00:00:10;33.70;;;24.77;;
18322;SDS011;9287;49.456;11.064;2022-10-13T00:02:38;35.07;;;24.57;;
18322;SDS011;9287;49.456;11.064;2022-10-13T00:05:06;35.27;;;25.07;;
18322;SDS011;9287;49.456;11.064;2022-10-13T00:07:33;36.80;;;26.10;;
18322;SDS011;9287;49.456;11.064;2022-10-13T00:10:01;37.47;;;25.07;;
18322;SDS011;9287;49.456;11.064;2022-10-13T00:12:34;39.33;;;24.97;;
18322;SDS011;9287;49.456;11.064;2022-10-13T00:15:02;36.50;;;24.63;;
18322;SDS011;9287;49.456;11.064;2022-10-13T00:17:29;34.00;;;24.07;;
18322;SDS011;9287;49.456;11.064;2022-10-13T00:19:57;35.13;;;24.43;;
18322;SDS011;9287;49.456;11.064;2022-10-13T00:22:27;32.43;;;24.47;;
18322;SDS011;9287;49.456;11.064;2022-10-13T00:24:55;35.37;;;24.67;;
18322;SDS011;9287;49.456;11.064;2022-10-13T00:27:23;32.87;;;25.00;;
18322;SDS011;9287;49.456;11.064;2022-10-13T00:29:52;34.87;;;25.23;;
18322;SDS011;9287;49.456;11.064;2022-10-13T00:32:20;34.40;;;24.50;;
18322;SDS011;9287;49.456;11.064;2022-10-13T00:34:47;37.63;;;25.87;;
18322;SDS011;9287;49.456;11.064;2022-10-13T00:37:15;37.27;;;24.77;;
18322;SDS011;9287;49.456;11.064;2022-10-13T00:39:42;41.37;;;26.47;;
18322;SDS011;9287;49.456;11.064;2022-10-13T00:42:10;35.10;;;25.17;;
18322;SDS011;9287;49.456;11.064;2022-10-13T00:44:58;38.57;;;27.03;;
18322;SDS011;9287;49.456;11.064;2022-10-13T00:47:27;40.60;;;27.20;;
18322;SDS011;9287;49.456;11.064;2022-10-13T00:49:55;38.87;;;26.37;;
18322;SDS011;9287;49.456;11.064;2022-10-13T00:52:23;37.53;;;25.17;;
18322;SDS011;9287;49.456;11.064;2022-10-13T00:54:51;35.43;;;25.57;;
18322;SDS011;9287;49.456;11.064;2022-10-13T00:57:19;43.40;;;27.50;;
18322;SDS011;9287;49.456;11.064;2022-10-13T00:59:47;37.03;;;26.00;;
18322;SDS011;9287;49.456;11.064;2022-10-13T01:02:16;37.27;;;26.27;;
18322;SDS011;9287;49.456;11.064;2022-10-13T01:04:45;40.30;;;28.17;;
18322;SDS011;9287;49.456;11.064;2022-10-13T01:07:13;40.03;;;27.13;;
18322;SDS011;9287;49.456;11.064;2022-10-13T01:09:42;40.47;;;26.20;;
18322;SDS011;9287;49.456;11.064;2022-10-13T01:12:13;40.20;;;27.17;;
18322;SDS011;9287;49.456;11.064;2022-10-13T01:14:48;40.20;;;27.43;;
18322;SDS011;9287;49.456;11.064;2022-10-13T01:17:21;41.13;;;27.27;;
18322;SDS011;9287;49.456;11.064;2022-10-13T01:19:56;44.43;;;26.27;;
18322;SDS011;9287;49.456;11.064;2022-10-13T01:22:36;52.90;;;32.07;;
18322;SDS011;9287;49.456;11.064;2022-10-13T01:25:07;50.73;;;31.30;;
18322;SDS011;9287;49.456;11.064;2022-10-13T01:27:49;53.07;;;32.73;;
18322;SDS011;9287;49.456;11.064;2022-10-13T01:30:21;50.93;;;32.73;;
18322;SDS011;9287;49.456;11.064;2022-10-13T01:38:19;52.23;;;31.53;;
18322;SDS011;9287;49.456;11.064;2022-10-13T01:40:50;52.10;;;33.13;;
18322;SDS011;9287;49.456;11.064;2022-10-13T01:43:26;55.77;;;33.23;;
18322;SDS011;9287;49.456;11.064;2022-10-13T01:45:57;50.77;;;32.33;;
18322;SDS011;9287;49.456;11.064;2022-10-13T01:48:26;50.83;;;32.10;;
18322;SDS011;9287;49.456;11.064;2022-10-13T01:50:54;50.87;;;32.50;;
18322;SDS011;9287;49.456;11.064;2022-10-13T01:53:23;48.40;;;30.77;;
18322;SDS011;9287;49.456;11.064;2022-10-13T01:55:51;50.70;;;30.90;;
18322;SDS011;9287;49.456;11.064;2022-10-13T01:58:18;47.73;;;30.90;;
18322;SDS011;9287;49.456;11.064;2022-10-13T02:00:49;52.87;;;32.10;;
18322;SDS011;9287;49.456;11.064;2022-10-13T02:03:20;50.90;;;31.53;;
18322;SDS011;9287;49.456;11.064;2022-10-13T02:05:52;40.90;;;27.17;;
18322;SDS011;9287;49.456;11.064;2022-10-13T02:08:22;44.13;;;26.80;;
18322;SDS011;9287;49.456;11.064;2022-10-13T02:10:51;41.53;;;25.17;;
18322;SDS011;9287;49.456;11.064;2022-10-13T02:13:24;41.13;;;25.83;;
18322;SDS011;9287;49.456;11.064;2022-10-13T02:15:54;34.10;;;24.60;;
18322;SDS011;9287;49.456;11.064;2022-10-13T02:18:25;36.80;;;25.37;;
18322;SDS011;9287;49.456;11.064;2022-10-13T02:20:54;41.53;;;26.97;;
18322;SDS011;9287;49.456;11.064;2022-10-13T02:23:22;37.87;;;25.30;;
18322;SDS011;9287;49.456;11.064;2022-10-13T02:25:49;39.77;;;25.63;;
18322;SDS011;9287;49.456;11.064;2022-10-13T02:28:17;34.30;;;23.57;;
18322;SDS011;9287;49.456;11.064;2022-10-13T02:30:45;35.93;;;25.40;;
18322;SDS011;9287;49.456;11.064;2022-10-13T02:33:13;37.20;;;25.00;;
18322;SDS011;9287;49.456;11.064;2022-10-13T02:35:42;38.77;;;25.87;;
18322;SDS011;9287;49.456;11.064;2022-10-13T02:38:09;37.43;;;26.03;;
18322;SDS011;9287;49.456;11.064;2022-10-13T02:40:37;40.57;;;25.87;;
18322;SDS011;9287;49.456;11.064;2022-10-13T02:43:04;42.07;;;25.10;;
18322;SDS011;9287;49.456;11.064;2022-10-13T02:45:32;35.57;;;25.23;;
18322;SDS011;9287;49.456;11.064;2022-10-13T02:47:59;38.60;;;25.93;;
18322;SDS011;9287;49.456;11.064;2022-10-13T02:50:27;36.23;;;25.23;;
18322;SDS011;9287;49.456;11.064;2022-10-13T02:52:56;39.47;;;24.87;;
18322;SDS011;9287;49.456;11.064;2022-10-13T02:55:23;37.87;;;25.83;;
18322;SDS011;9287;49.456;11.064;2022-10-13T02:57:50;35.07;;;23.47;;
18322;SDS011;9287;49.456;11.064;2022-10-13T03:00:18;37.17;;;24.57;;
18322;SDS011;9287;49.456;11.064;2022-10-13T03:02:45;31.87;;;23.30;;
18322;SDS011;9287;49.456;11.064;2022-10-13T03:05:13;31.67;;;22.07;;
18322;SDS011;9287;49.456;11.064;2022-10-13T03:07:40;32.77;;;22.27;;
18322;SDS011;9287;49.456;11.064;2022-10-13T03:10:09;32.90;;;23.27;;
18322;SDS011;9287;49.456;11.064;2022-10-13T03:12:37;35.13;;;24.13;;
18322;SDS011;9287;49.456;11.064;2022-10-13T03:15:04;34.30;;;22.73;;
18322;SDS011;9287;49.456;11.064;2022-10-13T03:17:32;34.37;;;22.47;;
18322;SDS011;9287;49.456;11.064;2022-10-13T03:19:59;37.37;;;23.90;;
18322;SDS011;9287;49.456;11.064;2022-10-13T03:22:27;35.37;;;23.37;;
18322;SDS011;9287;49.456;11.064;2022-10-13T03:24:57;31.00;;;22.60;;
18322;SDS011;9287;49.456;11.064;2022-10-13T03:27:25;32.77;;;23.47;;
18322;SDS011;9287;49.456;11.064;2022-10-13T03:29:53;37.10;;;24.37;;
18322;SDS011;9287;49.456;11.064;2022-10-13T03:32:20;33.73;;;23.17;;
18322;SDS011;9287;49.456;11.064;2022-10-13T03:34:48;36.07;;;22.67;;
18322;SDS011;9287;49.456;11.064;2022-10-13T03:37:15;36.43;;;23.80;;
18322;SDS011;9287;49.456;11.064;2022-10-13T03:39:43;34.37;;;23.27;;
18322;SDS011;9287;49.456;11.064;2022-10-13T03:42:11;33.93;;;22.77;;
18322;SDS011;9287;49.456;11.064;2022-10-13T03:44:39;31.70;;;23.17;;
18322;SDS011;9287;49.456;11.064;2022-10-13T03:47:07;36.37;;;23.73;;
18322;SDS011;9287;49.456;11.064;2022-10-13T03:49:36;30.97;;;23.10;;
18322;SDS011;9287;49.456;11.064;2022-10-13T03:52:03;35.70;;;24.03;;
18322;SDS011;9287;49.456;11.064;2022-10-13T03:54:31;36.00;;;23.97;;
18322;SDS011;9287;49.456;11.064;2022-10-13T03:56:58;37.90;;;23.90;;
18322;SDS011;9287;49.456;11.064;2022-10-13T03:59:25;34.63;;;22.83;;
18322;SDS011;9287;49.456;11.064;2022-10-13T04:02:03;36.30;;;24.33;;
18322;SDS011;9287;49.456;11.064;2022-10-13T04:04:30;37.53;;;24.57;;
18322;SDS011;9287;49.456;11.064;2022-10-13T04:06:58;30.13;;;22.70;;
18322;SDS011;9287;49.456;11.064;2022-10-13T04:09:25;35.80;;;23.40;;
18322;SDS011;9287;49.456;11.064;2022-10-13T04:11:52;31.43;;;21.77;;
18322;SDS011;9287;49.456;11.064;2022-10-13T04:14:20;39.20;;;24.50;;
18322;SDS011;9287;49.456;11.064;2022-10-13T04:16:47;34.73;;;23.67;;
18322;SDS011;9287;49.456;11.064;2022-10-13T04:19:16;36.90;;;23.90;;
18322;SDS011;9287;49.456;11.064;2022-10-13T04:21:44;34.70;;;24.73;;
18322;SDS011;9287;49.456;11.064;2022-10-13T04:24:11;37.27;;;24.83;;
18322;SDS011;9287;49.456;11.064;2022-10-13T04:26:39;42.17;;;27.90;;
18322;SDS011;9287;49.456;11.064;2022-10-13T04:29:08;41.23;;;26.93;;
18322;SDS011;9287;49.456;11.064;2022-10-13T04:31:36;39.60;;;27.27;;
18322;SDS011;9287;49.456;11.064;2022-10-13T04:34:04;44.30;;;28.00;;
18322;SDS011;9287;49.456;11.064;2022-10-13T04:36:34;41.63;;;28.10;;
18322;SDS011;9287;49.456;11.064;2022-10-13T04:39:01;42.97;;;27.73;;
18322;SDS011;9287;49.456;11.064;2022-10-13T04:41:29;45.77;;;28.03;;
18322;SDS011;9287;49.456;11.064;2022-10-13T04:43:56;50.03;;;29.20;;
18322;SDS011;9287;49.456;11.064;2022-10-13T04:46:25;46.37;;;29.97;;
18322;SDS011;9287;49.456;11.064;2022-10-13T04:48:52;51.87;;;30.23;;
18322;SDS011;9287;49.456;11.064;2022-10-13T04:51:21;47.43;;;29.23;;
18322;SDS011;9287;49.456;11.064;2022-10-13T04:53:53;49.23;;;29.27;;
18322;SDS011;9287;49.456;11.064;2022-10-13T04:56:21;44.63;;;30.27;;
18322;SDS011;9287;49.456;11.064;2022-10-13T04:58:49;48.97;;;30.00;;
18322;SDS011;9287;49.456;11.064;2022-10-13T05:01:17;45.30;;;30.00;;
18322;SDS011;9287;49.456;11.064;2022-10-13T05:03:49;43.73;;;27.63;;
18322;SDS011;9287;49.456;11.064;2022-10-13T05:06:17;44.67;;;29.13;;
18322;SDS011;9287;49.456;11.064;2022-10-13T05:08:44;45.70;;;29.67;;
18322;SDS011;9287;49.456;11.064;2022-10-13T05:11:14;44.70;;;28.13;;
18322;SDS011;9287;49.456;11.064;2022-10-13T05:13:42;47.87;;;29.37;;
18322;SDS011;9287;49.456;11.064;2022-10-13T05:16:10;46.93;;;28.90;;
18322;SDS011;9287;49.456;11.064;2022-10-13T05:18:38;47.27;;;30.43;;
18322;SDS011;9287;49.456;11.064;2022-10-13T05:21:06;46.93;;;29.13;;
18322;SDS011;9287;49.456;11.064;2022-10-13T05:23:34;44.00;;;29.67;;
18322;SDS011;9287;49.456;11.064;2022-10-13T05:26:03;46.17;;;29.07;;
18322;SDS011;9287;49.456;11.064;2022-10-13T05:28:32;53.00;;;29.97;;
18322;SDS011;9287;49.456;11.064;2022-10-13T05:31:07;48.53;;;30.10;;
18322;SDS011;9287;49.456;11.064;2022-10-13T05:33:35;46.63;;;28.27;;
18322;SDS011;9287;49.456;11.064;2022-10-13T05:36:03;49.10;;;29.50;;
18322;SDS011;9287;49.456;11.064;2022-10-13T05:38:31;51.33;;;29.43;;
18322;SDS011;9287;49.456;11.064;2022-10-13T05:41:02;48.53;;;29.40;;
18322;SDS011;9287;49.456;11.064;2022-10-13T05:43:29;46.13;;;28.80;;
18322;SDS011;9287;49.456;11.064;2022-10-13T05:45:58;44.30;;;28.40;;
18322;SDS011;9287;49.456;11.064;2022-10-13T05:48:26;40.87;;;28.03;;
18322;SDS011;9287;49.456;11.064;2022-10-13T05:50:54;46.20;;;29.53;;
18322;SDS011;9287;49.456;11.064;2022-10-13T05:53:23;46.93;;;28.50;;
18322;SDS011;9287;49.456;11.064;2022-10-13T05:55:51;45.37;;;28.10;;
18322;SDS011;9287;49.456;11.064;2022-10-13T05:58:22;44.90;;;28.93;;
18322;SDS011;9287;49.456;11.064;2022-10-13T06:00:50;41.23;;;26.97;;
18322;SDS011;9287;49.456;11.064;2022-10-13T06:03:21;45.03;;;28.40;;
18322;SDS011;9287;49.456;11.064;2022-10-13T06:05:49;43.90;;;27.00;;
18322;SDS011;9287;49.456;11.064;2022-10-13T06:08:16;44.80;;;27.73;;
18322;SDS011;9287;49.456;11.064;2022-10-13T06:10:44;45.63;;;27.47;;
18322;SDS011;9287;49.456;11.064;2022-10-13T06:13:11;44.03;;;26.67;;
18322;SDS011;9287;49.456;11.064;2022-10-13T06:15:39;44.87;;;26.57;;
18322;SDS011;9287;49.456;11.064;2022-10-13T06:18:06;46.53;;;27.33;;
18322;SDS011;9287;49.456;11.064;2022-10-13T06:20:36;44.90;;;27.10;;
18322;SDS011;9287;49.456;11.064;2022-10-13T06:23:03;39.23;;;25.00;;
18322;SDS011;9287;49.456;11.064;2022-10-13T06:25:31;39.90;;;25.60;;
18322;SDS011;9287;49.456;11.064;2022-10-13T06:27:58;41.77;;;25.33;;
18322;SDS011;9287;49.456;11.064;2022-10-13T06:30:26;42.97;;;25.40;;
18322;SDS011;9287;49.456;11.064;2022-10-13T06:32:53;39.43;;;25.87;;
18322;SDS011;9287;49.456;11.064;2022-10-13T06:35:21;37.93;;;25.60;;
18322;SDS011;9287;49.456;11.064;2022-10-13T06:37:50;40.40;;;26.23;;
18322;SDS011;9287;49.456;11.064;2022-10-13T06:40:18;42.83;;;24.80;;
18322;SDS011;9287;49.456;11.064;2022-10-13T06:42:49;44.97;;;26.47;;
18322;SDS011;9287;49.456;11.064;2022-10-13T06:45:16;38.43;;;25.37;;
18322;SDS011;9287;49.456;11.064;2022-10-13T06:47:44;38.17;;;24.63;;
18322;SDS011;9287;49.456;11.064;2022-10-13T06:50:12;42.67;;;25.60;;
18322;SDS011;9287;49.456;11.064;2022-10-13T06:52:39;40.00;;;25.80;;
18322;SDS011;9287;49.456;11.064;2022-10-13T06:55:09;44.57;;;25.67;;
18322;SDS011;9287;49.456;11.064;2022-10-13T06:57:37;42.27;;;23.83;;
18322;SDS011;9287;49.456;11.064;2022-10-13T07:00:05;37.20;;;24.17;;
18322;SDS011;9287;49.456;11.064;2022-10-13T07:02:33;40.20;;;25.07;;
18322;SDS011;9287;49.456;11.064;2022-10-13T07:05:00;38.30;;;24.60;;
18322;SDS011;9287;49.456;11.064;2022-10-13T07:07:28;35.73;;;23.90;;
18322;SDS011;9287;49.456;11.064;2022-10-13T07:09:55;36.53;;;22.53;;
18322;SDS011;9287;49.456;11.064;2022-10-13T07:12:24;36.83;;;23.00;;
18322;SDS011;9287;49.456;11.064;2022-10-13T07:14:51;33.67;;;23.53;;
18322;SDS011;9287;49.456;11.064;2022-10-13T07:17:19;37.00;;;22.90;;
18322;SDS011;9287;49.456;11.064;2022-10-13T07:19:47;33.03;;;23.13;;
18322;SDS011;9287;49.456;11.064;2022-10-13T07:22:14;34.17;;;21.97;;
18322;SDS011;9287;49.456;11.064;2022-10-13T07:24:42;31.57;;;22.20;;
18322;SDS011;9287;49.456;11.064;2022-10-13T07:27:09;35.10;;;23.40;;
18322;SDS011;9287;49.456;11.064;2022-10-13T07:29:38;29.40;;;21.17;;
18322;SDS011;9287;49.456;11.064;2022-10-13T07:32:06;31.40;;;22.00;;
18322;SDS011;9287;49.456;11.064;2022-10-13T07:34:33;32.13;;;22.47;;
18322;SDS011;9287;49.456;11.064;2022-10-13T07:37:01;31.37;;;19.77;;
18322;SDS011;9287;49.456;11.064;2022-10-13T07:39:29;27.30;;;18.87;;
18322;SDS011;9287;49.456;11.064;2022-10-13T07:41:57;27.47;;;19.00;;
18322;SDS011;9287;49.456;11.064;2022-10-13T07:44:24;27.70;;;18.50;;
18322;SDS011;9287;49.456;11.064;2022-10-13T07:46:53;26.00;;;18.60;;
18322;SDS011;9287;49.456;11.064;2022-10-13T07:49:21;30.13;;;20.10;;
18322;SDS011;9287;49.456;11.064;2022-10-13T07:51:49;26.40;;;19.43;;
18322;SDS011;9287;49.456;11.064;2022-10-13T07:54:16;25.00;;;17.97;;
18322;SDS011;9287;49.456;11.064;2022-10-13T07:56:50;29.03;;;19.83;;
18322;SDS011;9287;49.456;11.064;2022-10-13T07:59:17;27.73;;;18.90;;
18322;SDS011;9287;49.456;11.064;2022-10-13T08:01:45;22.40;;;16.83;;
18322;SDS011;9287;49.456;11.064;2022-10-13T08:04:14;23.80;;;18.07;;
18322;SDS011;9287;49.456;11.064;2022-10-13T08:06:42;25.30;;;18.73;;
18322;SDS011;9287;49.456;11.064;2022-10-13T08:09:09;24.63;;;18.00;;
18322;SDS011;9287;49.456;11.064;2022-10-13T08:11:37;21.30;;;17.07;;
18322;SDS011;9287;49.456;11.064;2022-10-13T08:14:05;23.73;;;17.67;;
18322;SDS011;9287;49.456;11.064;2022-10-13T08:16:32;21.23;;;16.50;;
18322;SDS011;9287;49.456;11.064;2022-10-13T08:19:00;19.57;;;15.97;;
18322;SDS011;9287;49.456;11.064;2022-10-13T08:21:29;21.50;;;16.40;;
18322;SDS011;9287;49.456;11.064;2022-10-13T08:24:16;26.20;;;17.77;;
18322;SDS011;9287;49.456;11.064;2022-10-13T08:26:44;22.83;;;17.07;;
18322;SDS011;9287;49.456;11.064;2022-10-13T08:29:12;25.87;;;16.70;;
18322;SDS011;9287;49.456;11.064;2022-10-13T08:31:49;20.47;;;16.03;;
18322;SDS011;9287;49.456;11.064;2022-10-13T08:34:17;26.07;;;17.70;;
18322;SDS011;9287;49.456;11.064;2022-10-13T08:36:46;23.97;;;15.80;;
18322;SDS011;9287;49.456;11.064;2022-10-13T08:39:17;22.03;;;15.73;;
18322;SDS011;9287;49.456;11.064;2022-10-13T08:41:45;19.00;;;14.60;;
18322;SDS011;9287;49.456;11.064;2022-10-13T08:44:15;25.33;;;16.83;;
18322;SDS011;9287;49.456;11.064;2022-10-13T08:47:07;25.03;;;16.43;;
18322;SDS011;9287;49.456;11.064;2022-10-13T08:49:38;20.20;;;14.97;;
18322;SDS011;9287;49.456;11.064;2022-10-13T08:52:09;21.33;;;15.93;;
18322;SDS011;9287;49.456;11.064;2022-10-13T08:54:40;20.10;;;16.20;;
18322;SDS011;9287;49.456;11.064;2022-10-13T08:57:07;21.03;;;15.03;;
18322;SDS011;9287;49.456;11.064;2022-10-13T08:59:35;18.40;;;14.40;;
18322;SDS011;9287;49.456;11.064;2022-10-13T09:02:04;19.33;;;14.73;;
18322;SDS011;9287;49.456;11.064;2022-10-13T09:04:38;17.60;;;14.23;;
18322;SDS011;9287;49.456;11.064;2022-10-13T09:07:11;20.50;;;13.67;;
18322;SDS011;9287;49.456;11.064;2022-10-13T09:09:39;17.97;;;14.47;;
18322;SDS011;9287;49.456;11.064;2022-10-13T09:12:08;16.40;;;13.80;;
18322;SDS011;9287;49.456;11.064;2022-10-13T09:14:37;18.27;;;14.00;;
18322;SDS011;9287;49.456;11.064;2022-10-13T09:17:13;17.60;;;14.23;;
18322;SDS011;9287;49.456;11.064;2022-10-13T09:19:41;18.30;;;14.47;;
18322;SDS011;9287;49.456;11.064;2022-10-13T09:22:18;15.90;;;12.63;;
18322;SDS011;9287;49.456;11.064;2022-10-13T09:24:51;18.20;;;14.33;;
18322;SDS011;9287;49.456;11.064;2022-10-13T09:27:28;19.10;;;14.17;;
18322;SDS011;9287;49.456;11.064;2022-10-13T09:30:27;18.30;;;12.93;;
18322;SDS011;9287;49.456;11.064;2022-10-13T09:32:58;17.10;;;13.73;;
18322;SDS011;9287;49.456;11.064;2022-10-13T09:35:31;18.77;;;14.47;;
18322;SDS011;9287;49.456;11.064;2022-10-13T09:38:02;18.00;;;13.83;;
18322;SDS011;9287;49.456;11.064;2022-10-13T09:40:30;18.83;;;13.87;;
18322;SDS011;9287;49.456;11.064;2022-10-13T09:42:58;21.23;;;14.97;;
18322;SDS011;9287;49.456;11.064;2022-10-13T09:45:26;19.70;;;15.17;;
18322;SDS011;9287;49.456;11.064;2022-10-13T09:47:56;18.87;;;15.13;;
18322;SDS011;9287;49.456;11.064;2022-10-13T09:50:24;17.93;;;14.13;;
18322;SDS011;9287;49.456;11.064;2022-10-13T09:52:53;19.50;;;15.07;;
18322;SDS011;9287;49.456;11.064;2022-10-13T09:55:36;20.53;;;15.30;;
18322;SDS011;9287;49.456;11.064;2022-10-13T09:58:04;17.83;;;14.33;;
18322;SDS011;9287;49.456;11.064;2022-10-13T10:00:32;17.87;;;15.17;;
18322;SDS011;9287;49.456;11.064;2022-10-13T10:03:01;18.73;;;14.70;;
18322;SDS011;9287;49.456;11.064;2022-10-13T10:05:32;19.93;;;14.40;;
18322;SDS011;9287;49.456;11.064;2022-10-13T10:08:05;21.93;;;14.60;;
18322;SDS011;9287;49.456;11.064;2022-10-13T10:10:33;22.03;;;15.17;;
18322;SDS011;9287;49.456;11.064;2022-10-13T10:13:03;19.13;;;14.77;;
18322;SDS011;9287;49.456;11.064;2022-10-13T10:15:33;19.57;;;14.20;;
18322;SDS011;9287;49.456;11.064;2022-10-13T10:18:02;19.93;;;14.67;;
18322;SDS011;9287;49.456;11.064;2022-10-13T10:20:45;19.90;;;15.07;;
18322;SDS011;9287;49.456;11.064;2022-10-13T10:23:17;20.33;;;15.67;;
18322;SDS011;9287;49.456;11.064;2022-10-13T10:25:49;21.23;;;15.40;;
18322;SDS011;9287;49.456;11.064;2022-10-13T10:28:32;20.17;;;15.20;;
18322;SDS011;9287;49.456;11.064;2022-10-13T10:31:05;25.73;;;15.03;;
18322;SDS011;9287;49.456;11.064;2022-10-13T10:33:37;19.37;;;14.40;;
18322;SDS011;9287;49.456;11.064;2022-10-13T10:36:07;19.53;;;15.13;;
18322;SDS011;9287;49.456;11.064;2022-10-13T10:38:43;20.07;;;14.87;;
18322;SDS011;9287;49.456;11.064;2022-10-13T10:41:12;16.83;;;13.33;;
18322;SDS011;9287;49.456;11.064;2022-10-13T10:43:47;20.57;;;14.33;;
18322;SDS011;9287;49.456;11.064;2022-10-13T10:46:17;18.90;;;14.67;;
18322;SDS011;9287;49.456;11.064;2022-10-13T10:48:45;20.33;;;14.93;;
18322;SDS011;9287;49.456;11.064;2022-10-13T10:51:13;20.50;;;14.03;;
18322;SDS011;9287;49.456;11.064;2022-10-13T10:53:44;22.90;;;15.67;;
18322;SDS011;9287;49.456;11.064;2022-10-13T10:56:14;21.53;;;15.17;;
18322;SDS011;9287;49.456;11.064;2022-10-13T10:58:48;23.83;;;16.47;;
18322;SDS011;9287;49.456;11.064;2022-10-13T11:01:25;24.47;;;16.13;;
18322;SDS011;9287;49.456;11.064;2022-10-13T11:03:55;19.70;;;16.03;;
18322;SDS011;9287;49.456;11.064;2022-10-13T11:06:25;19.47;;;15.13;;
18322;SDS011;9287;49.456;11.064;2022-10-13T11:08:58;20.07;;;15.33;;
18322;SDS011;9287;49.456;11.064;2022-10-13T11:11:29;19.83;;;15.50;;
18322;SDS011;9287;49.456;11.064;2022-10-13T11:14:27;21.67;;;15.37;;
18322;SDS011;9287;49.456;11.064;2022-10-13T11:17:02;22.50;;;14.27;;
18322;SDS011;9287;49.456;11.064;2022-10-13T11:19:30;20.13;;;14.30;;
18322;SDS011;9287;49.456;11.064;2022-10-13T11:24:51;20.53;;;13.13;;
18322;SDS011;9287;49.456;11.064;2022-10-13T11:27:23;20.73;;;12.93;;
18322;SDS011;9287;49.456;11.064;2022-10-13T11:29:54;12.70;;;11.37;;
18322;SDS011;9287;49.456;11.064;2022-10-13T11:32:40;18.27;;;13.90;;
18322;SDS011;9287;49.456;11.064;2022-10-13T11:35:17;19.87;;;13.40;;
18322;SDS011;9287;49.456;11.064;2022-10-13T11:37:48;21.00;;;13.43;;
18322;SDS011;9287;49.456;11.064;2022-10-13T11:40:32;18.70;;;12.67;;
18322;SDS011;9287;49.456;11.064;2022-10-13T11:43:02;16.90;;;12.07;;
18322;SDS011;9287;49.456;11.064;2022-10-13T11:48:31;15.00;;;11.43;;
18322;SDS011;9287;49.456;11.064;2022-10-13T11:51:13;18.57;;;12.17;;
18322;SDS011;9287;49.456;11.064;2022-10-13T11:53:42;14.80;;;11.50;;
18322;SDS011;9287;49.456;11.064;2022-10-13T11:56:18;17.07;;;12.37;;
18322;SDS011;9287;49.456;11.064;2022-10-13T11:58:47;20.00;;;12.40;;
18322;SDS011;9287;49.456;11.064;2022-10-13T12:01:15;16.87;;;11.90;;
18322;SDS011;9287;49.456;11.064;2022-10-13T12:03:44;20.27;;;11.77;;
18322;SDS011;9287;49.456;11.064;2022-10-13T12:06:24;20.23;;;12.93;;
18322;SDS011;9287;49.456;11.064;2022-10-13T12:08:58;16.10;;;11.50;;
18322;SDS011;9287;49.456;11.064;2022-10-13T12:11:27;18.07;;;12.53;;
18322;SDS011;9287;49.456;11.064;2022-10-13T12:13:55;20.97;;;12.83;;
18322;SDS011;9287;49.456;11.064;2022-10-13T12:16:22;20.40;;;12.53;;
18322;SDS011;9287;49.456;11.064;2022-10-13T12:18:51;19.53;;;11.83;;
18322;SDS011;9287;49.456;11.064;2022-10-13T12:21:20;20.70;;;12.90;;
18322;SDS011;9287;49.456;11.064;2022-10-13T12:23:48;18.30;;;12.43;;
18322;SDS011;9287;49.456;11.064;2022-10-13T12:26:16;20.33;;;12.40;;
18322;SDS011;9287;49.456;11.064;2022-10-13T12:28:48;23.10;;;13.67;;
18322;SDS011;9287;49.456;11.064;2022-10-13T12:31:17;19.87;;;13.90;;
18322;SDS011;9287;49.456;11.064;2022-10-13T12:33:52;18.03;;;11.57;;
18322;SDS011;9287;49.456;11.064;2022-10-13T12:36:20;15.03;;;12.50;;
18322;SDS011;9287;49.456;11.064;2022-10-13T12:38:48;19.27;;;13.30;;
18322;SDS011;9287;49.456;11.064;2022-10-13T12:41:17;16.50;;;12.27;;
18322;SDS011;9287;49.456;11.064;2022-10-13T12:43:45;14.77;;;11.53;;
18322;SDS011;9287;49.456;11.064;2022-10-13T12:46:21;19.30;;;12.57;;
18322;SDS011;9287;49.456;11.064;2022-10-13T12:49:05;18.60;;;13.03;;
18322;SDS011;9287;49.456;11.064;2022-10-13T12:51:39;18.63;;;12.60;;
18322;SDS011;9287;49.456;11.064;2022-10-13T12:54:08;16.90;;;12.40;;
18322;SDS011;9287;49.456;11.064;2022-10-13T12:56:36;19.00;;;12.57;;
18322;SDS011;9287;49.456;11.064;2022-10-13T12:59:03;16.53;;;11.93;;
18322;SDS011;9287;49.456;11.064;2022-10-13T13:01:31;17.63;;;12.50;;
18322;SDS011;9287;49.456;11.064;2022-10-13T13:03:59;19.60;;;12.50;;
18322;SDS011;9287;49.456;11.064;2022-10-13T13:06:32;19.30;;;12.37;;
18322;SDS011;9287;49.456;11.064;2022-10-13T13:09:07;18.37;;;13.47;;
18322;SDS011;9287;49.456;11.064;2022-10-13T13:11:35;17.93;;;11.67;;
18322;SDS011;9287;49.456;11.064;2022-10-13T13:14:32;18.33;;;12.80;;
18322;SDS011;9287;49.456;11.064;2022-10-13T13:17:01;16.23;;;12.03;;
18322;SDS011;9287;49.456;11.064;2022-10-13T13:19:29;18.23;;;12.87;;
18322;SDS011;9287;49.456;11.064;2022-10-13T13:21:59;15.57;;;11.80;;
18322;SDS011;9287;49.456;11.064;2022-10-13T13:24:26;17.50;;;11.27;;
18322;SDS011;9287;49.456;11.064;2022-10-13T13:27:15;15.90;;;11.53;;
18322;SDS011;9287;49.456;11.064;2022-10-13T13:29:43;14.67;;;11.70;;
18322;SDS011;9287;49.456;11.064;2022-10-13T13:32:11;19.10;;;12.60;;
18322;SDS011;9287;49.456;11.064;2022-10-13T13:34:39;19.27;;;11.77;;
18322;SDS011;9287;49.456;11.064;2022-10-13T13:37:09;20.93;;;13.13;;
18322;SDS011;9287;49.456;11.064;2022-10-13T13:39:38;18.00;;;11.77;;
18322;SDS011;9287;49.456;11.064;2022-10-13T13:42:07;16.10;;;11.67;;
18322;SDS011;9287;49.456;11.064;2022-10-13T13:44:38;16.47;;;12.17;;
18322;SDS011;9287;49.456;11.064;2022-10-13T13:47:07;20.43;;;11.83;;
18322;SDS011;9287;49.456;11.064;2022-10-13T13:49:36;15.20;;;11.97;;
18322;SDS011;9287;49.456;11.064;2022-10-13T13:52:04;20.50;;;12.80;;
18322;SDS011;9287;49.456;11.064;2022-10-13T13:54:32;16.03;;;11.17;;
18322;SDS011;9287;49.456;11.064;2022-10-13T13:57:00;17.17;;;11.07;;
18322;SDS011;9287;49.456;11.064;2022-10-13T13:59:27;15.70;;;11.37;;
18322;SDS011;9287;49.456;11.064;2022-10-13T14:01:55;16.27;;;10.73;;
18322;SDS011;9287;49.456;11.064;2022-10-13T14:04:22;15.73;;;11.50;;
18322;SDS011;9287;49.456;11.064;2022-10-13T14:06:50;14.50;;;10.70;;
18322;SDS011;9287;49.456;11.064;2022-10-13T14:09:17;16.97;;;11.93;;
18322;SDS011;9287;49.456;11.064;2022-10-13T14:11:46;18.37;;;11.20;;
18322;SDS011;9287;49.456;11.064;2022-10-13T14:14:14;18.07;;;11.90;;
18322;SDS011;9287;49.456;11.064;2022-10-13T14:16:41;22.17;;;11.07;;
18322;SDS011;9287;49.456;11.064;2022-10-13T14:19:09;13.03;;;10.07;;
18322;SDS011;9287;49.456;11.064;2022-10-13T14:21:37;16.03;;;10.93;;
18322;SDS011;9287;49.456;11.064;2022-10-13T14:24:04;16.13;;;9.97;;
18322;SDS011;9287;49.456;11.064;2022-10-13T14:26:32;13.50;;;9.70;;
18322;SDS011;9287;49.456;11.064;2022-10-13T14:29:01;13.93;;;9.97;;
18322;SDS011;9287;49.456;11.064;2022-10-13T14:31:29;16.23;;;9.70;;
18322;SDS011;9287;49.456;11.064;2022-10-13T14:33:56;15.70;;;10.27;;
18322;SDS011;9287;49.456;11.064;2022-10-13T14:36:24;18.70;;;10.20;;
18322;SDS011;9287;49.456;11.064;2022-10-13T14:38:52;15.33;;;10.70;;
18322;SDS011;9287;49.456;11.064;2022-10-13T14:41:20;14.73;;;10.23;;
18322;SDS011;9287;49.456;11.064;2022-10-13T14:43:50;14.57;;;9.87;;
18322;SDS011;9287;49.456;11.064;2022-10-13T14:46:19;12.97;;;9.37;;